createdAt,value
2023-01-29T00:02:05.356Z,99969.75
2023-01-29T00:04:32.025Z,99961.75
2023-01-29T00:06:59.157Z,99969.66
2023-01-29T00:09:29.072Z,99966.97
2023-01-29T00:11:55.511Z,99967.84
2023-01-29T00:14:22.132Z,99963.13
2023-01-29T00:16:55.810Z,99968.66
2023-01-29T00:19:22.430Z,99966.25
2023-01-29T00:21:51.603Z,99950.69
2023-01-29T00:24:18.211Z,99954.06
2023-01-29T00:26:44.791Z,99947.09
2023-01-29T00:29:13.981Z,99935.72
2023-01-29T00:31:40.576Z,99934.03
2023-01-29T00:34:07.154Z,99939.50
2023-01-29T00:36:33.663Z,99932.53
2023-01-29T00:39:02.764Z,99926.63
2023-01-29T00:41:49.918Z,99931.09
2023-01-29T00:44:35.441Z,99934.00
2023-01-29T00:47:27.797Z,99933.31
2023-01-29T00:49:54.581Z,99929.91
2023-01-29T00:52:24.064Z,99929.91
2023-01-29T00:54:51.858Z,99930.81
2023-01-29T00:57:18.405Z,99934.19
2023-01-29T00:59:48.295Z,99927.13
2023-01-29T01:02:37.210Z,99917.84
2023-01-29T01:05:06.115Z,99925.72
2023-01-29T01:07:32.636Z,99920.16
2023-01-29T01:10:17.825Z,99918.75
2023-01-29T01:12:44.545Z,99917.16
2023-01-29T01:15:11.916Z,99914.06
2023-01-29T01:17:38.481Z,99907.56
2023-01-29T01:20:05.537Z,99924.84
2023-01-29T01:22:32.033Z,99921.34
2023-01-29T01:24:58.488Z,99920.38
2023-01-29T01:27:25.698Z,99924.13
2023-01-29T01:29:52.328Z,99921.72
2023-01-29T01:32:18.872Z,99921.94
2023-01-29T01:34:45.376Z,99925.53
2023-01-29T01:37:12.168Z,99923.03
2023-01-29T01:39:38.616Z,99918.94
2023-01-29T01:42:14.167Z,99919.16
2023-01-29T01:45:13.501Z,99912.53
2023-01-29T01:47:51.385Z,99912.03
2023-01-29T01:50:34.350Z,99906.75
2023-01-29T01:53:17.093Z,99893.75
2023-01-29T01:55:59.052Z,99891.25
2023-01-29T01:58:45.377Z,99879.22
2023-01-29T02:01:12.745Z,99880.38
2023-01-29T02:04:08.336Z,99876.97
2023-01-29T02:06:54.586Z,99880.66
2023-01-29T02:09:37.908Z,99884.16
2023-01-29T02:12:11.530Z,99875.78
2023-01-29T02:14:40.323Z,99880.97
2023-01-29T02:17:13.197Z,99882.56
2023-01-29T02:20:10.491Z,99887.25
2023-01-29T02:22:56.148Z,99872.47
2023-01-29T02:25:30.055Z,99876.28
2023-01-29T02:28:30.730Z,99877.88
2023-01-29T02:31:04.901Z,99875.75
2023-01-29T02:33:41.104Z,99876.88
2023-01-29T02:36:15.043Z,99895.69
2023-01-29T02:38:53.412Z,99896.13
2023-01-29T02:41:20.484Z,99901.41
2023-01-29T02:44:05.984Z,99895.59
2023-01-29T02:46:40.658Z,99898.00
2023-01-29T02:49:17.304Z,99901.56
2023-01-29T02:51:51.521Z,99902.56
2023-01-29T02:54:27.705Z,99894.78
2023-01-29T02:56:58.535Z,99896.38
2023-01-29T02:59:53.816Z,99894.78
2023-01-29T03:02:33.470Z,99900.38
2023-01-29T03:05:07.745Z,99888.38
2023-01-29T03:07:46.810Z,99883.47
2023-01-29T03:10:28.082Z,99883.38
2023-01-29T03:13:04.045Z,99884.41
2023-01-29T03:15:39.054Z,99887.00
2023-01-29T03:18:11.376Z,99888.00
2023-01-29T03:20:51.787Z,99895.16
2023-01-29T03:23:47.373Z,99913.22
2023-01-29T03:26:35.255Z,99906.84
2023-01-29T03:29:23.474Z,99905.69
2023-01-29T03:32:04.426Z,99897.06
2023-01-29T03:34:38.933Z,99902.94
2023-01-29T03:37:13.841Z,99905.78
2023-01-29T03:39:40.513Z,99903.28
2023-01-29T03:42:31.059Z,99892.19
2023-01-29T03:45:22.493Z,99901.69
2023-01-29T03:48:00.112Z,99903.38
2023-01-29T03:50:39.440Z,99900.97
2023-01-29T03:53:19.324Z,99900.97
2023-01-29T03:55:58.314Z,99901.97
2023-01-29T03:58:51.132Z,99900.44
2023-01-29T04:01:24.969Z,99898.66
2023-01-29T04:04:03.607Z,99893.38
2023-01-29T04:06:34.226Z,99894.38
2023-01-29T04:09:13.710Z,99887.53
2023-01-29T04:11:45.121Z,99874.56
2023-01-29T04:14:13.882Z,99870.34
2023-01-29T04:16:52.250Z,99854.84
2023-01-29T04:19:18.872Z,99851.44
2023-01-29T04:21:48.441Z,99853.22
2023-01-29T04:24:15.387Z,99851.56
2023-01-29T04:27:10.283Z,99854.41
2023-01-29T04:29:53.553Z,99844.19
2023-01-29T04:32:58.153Z,99838.47
2023-01-29T04:35:50.768Z,99828.25
2023-01-29T04:38:19.861Z,99831.84
2023-01-29T04:41:08.856Z,99835.41
2023-01-29T04:43:48.027Z,99826.81
2023-01-29T04:46:25.750Z,99831.19
2023-01-29T04:49:05.279Z,99820.81
2023-01-29T04:51:40.746Z,99821.00
2023-01-29T04:54:17.476Z,99814.09
2023-01-29T04:56:46.933Z,99801.09
2023-01-29T04:59:20.796Z,99794.22
2023-01-29T05:01:48.644Z,99793.41
2023-01-29T05:04:19.164Z,99783.34
2023-01-29T05:06:46.827Z,99770.53
2023-01-29T05:09:16.391Z,99765.41
2023-01-29T05:11:45.510Z,99758.50
2023-01-29T05:14:14.674Z,99774.28
2023-01-29T05:16:57.110Z,99762.09
2023-01-29T05:19:23.595Z,99771.75
2023-01-29T05:21:50.552Z,99759.56
2023-01-29T05:24:19.935Z,99758.75
2023-01-29T05:27:07.599Z,99756.16
2023-01-29T05:29:34.102Z,99757.88
2023-01-29T05:32:01.010Z,99750.06
2023-01-29T05:34:27.558Z,99757.41
2023-01-29T05:36:54.052Z,99759.19
2023-01-29T05:39:20.795Z,99764.72
2023-01-29T05:41:47.647Z,99764.03
2023-01-29T05:44:14.175Z,99772.00
2023-01-29T05:46:40.705Z,99781.66
2023-01-29T05:49:07.209Z,99774.75
2023-01-29T05:51:33.738Z,99784.44
2023-01-29T05:54:00.437Z,99787.13
2023-01-29T05:56:26.889Z,99786.22
2023-01-29T05:58:53.400Z,99787.84
2023-01-29T06:01:22.554Z,99793.78
2023-01-29T06:03:49.084Z,99796.28
2023-01-29T06:06:16.449Z,99797.28
2023-01-29T06:08:43.525Z,99800.78
2023-01-29T06:11:16.433Z,99800.94
2023-01-29T06:13:42.946Z,99803.44
2023-01-29T06:16:11.021Z,99806.94
2023-01-29T06:18:41.197Z,99813.84
2023-01-29T06:21:12.212Z,99825.88
2023-01-29T06:23:39.211Z,99824.09
2023-01-29T06:26:08.590Z,99825.16
2023-01-29T06:28:35.218Z,99839.88
2023-01-29T06:31:21.049Z,99845.06
2023-01-29T06:33:49.709Z,99862.47
2023-01-29T06:36:19.172Z,99859.84
2023-01-29T06:38:45.723Z,99857.09
2023-01-29T06:41:16.266Z,99855.22
2023-01-29T06:43:46.110Z,99853.44
2023-01-29T06:46:12.770Z,99837.81
2023-01-29T06:48:39.379Z,99835.22
2023-01-29T06:51:08.358Z,99833.34
2023-01-29T06:53:38.645Z,99811.53
2023-01-29T06:56:06.248Z,99814.94
2023-01-29T06:58:33.306Z,99830.63
2023-01-29T07:01:11.121Z,99818.44
2023-01-29T07:03:39.277Z,99819.97
2023-01-29T07:06:06.935Z,99822.75
2023-01-29T07:08:37.601Z,99814.88
2023-01-29T07:11:04.915Z,99826.34
2023-01-29T07:13:31.634Z,99823.72
2023-01-29T07:15:59.618Z,99835.22
2023-01-29T07:18:27.510Z,99833.53
2023-01-29T07:20:54.108Z,99830.09
2023-01-29T07:23:21.121Z,99822.31
2023-01-29T07:25:49.812Z,99819.78
2023-01-29T07:28:20.577Z,99822.47
2023-01-29T07:30:47.257Z,99829.47
2023-01-29T07:33:13.760Z,99832.16
2023-01-29T07:35:42.540Z,99822.63
2023-01-29T07:38:10.498Z,99834.06
2023-01-29T07:40:37.310Z,99839.13
2023-01-29T07:43:06.411Z,99855.63
2023-01-29T07:45:35.198Z,99872.16
2023-01-29T07:48:01.920Z,99877.38
2023-01-29T07:50:28.942Z,99874.78
2023-01-29T07:52:55.462Z,99886.06
2023-01-29T07:55:22.284Z,99868.13
2023-01-29T07:57:55.378Z,99859.41
2023-01-29T08:00:22.187Z,99854.22
2023-01-29T08:02:48.672Z,99848.38
2023-01-29T08:05:15.135Z,99829.41
2023-01-29T08:07:41.605Z,99822.72
2023-01-29T08:10:08.713Z,99827.25
2023-01-29T08:12:35.293Z,99820.50
2023-01-29T08:15:01.772Z,99822.56
2023-01-29T08:17:28.199Z,99810.69
2023-01-29T08:19:54.755Z,99812.69
2023-01-29T08:22:21.266Z,99802.44
2023-01-29T08:24:59.907Z,99786.97
2023-01-29T08:27:29.478Z,99788.94
2023-01-29T08:29:55.978Z,99779.50
2023-01-29T08:32:22.420Z,99776.00
2023-01-29T08:34:56.087Z,99763.81
2023-01-29T08:37:22.538Z,99761.91
2023-01-29T08:39:49.048Z,99772.31
2023-01-29T08:42:15.581Z,99771.34
2023-01-29T08:44:42.098Z,99773.94
2023-01-29T08:47:08.966Z,99775.59
2023-01-29T08:49:35.442Z,99776.41
2023-01-29T08:52:03.209Z,99770.28
2023-01-29T08:54:30.477Z,99770.28
2023-01-29T08:56:56.977Z,99780.78
2023-01-29T08:59:23.560Z,99788.59
2023-01-29T09:01:50.074Z,99791.19
2023-01-29T09:04:16.509Z,99794.69
2023-01-29T09:06:42.999Z,99795.59
2023-01-29T09:09:09.497Z,99794.84
2023-01-29T09:11:35.987Z,99790.53
2023-01-29T09:14:02.446Z,99784.53
2023-01-29T09:16:30.207Z,99789.91
2023-01-29T09:18:56.732Z,99777.88
2023-01-29T09:21:23.244Z,99769.31
2023-01-29T09:23:50.233Z,99770.22
2023-01-29T09:26:16.742Z,99764.13
2023-01-29T09:28:43.272Z,99757.34
2023-01-29T09:31:09.845Z,99736.78
2023-01-29T09:33:36.573Z,99736.19
2023-01-29T09:36:04.147Z,99738.16
2023-01-29T09:38:30.647Z,99741.91
2023-01-29T09:41:06.345Z,99733.41
2023-01-29T09:43:55.337Z,99732.84
2023-01-29T09:46:44.525Z,99729.50
2023-01-29T09:49:22.635Z,99729.66
2023-01-29T09:51:52.989Z,99720.94
2023-01-29T09:54:23.954Z,99714.91
2023-01-29T09:56:55.159Z,99703.53
2023-01-29T09:59:23.879Z,99714.03
2023-01-29T10:02:10.372Z,99708.19
2023-01-29T10:04:49.715Z,99710.94
2023-01-29T10:07:40.772Z,99706.63
2023-01-29T10:10:47.614Z,99711.75
2023-01-29T10:13:39.311Z,99714.28
2023-01-29T10:16:18.758Z,99711.75
2023-01-29T10:18:51.306Z,99709.22
2023-01-29T10:21:27.065Z,99690.00
2023-01-29T10:24:05.806Z,99703.25
2023-01-29T10:26:34.238Z,99693.16
2023-01-29T10:29:02.734Z,99686.38
2023-01-29T10:31:36.550Z,99683.28
2023-01-29T10:34:21.370Z,99677.53
2023-01-29T10:36:50.201Z,99663.91
2023-01-29T10:39:19.349Z,99667.41
2023-01-29T10:42:22.674Z,99669.56
2023-01-29T10:44:57.589Z,99658.63
2023-01-29T10:47:30.513Z,99662.31
2023-01-29T10:50:06.126Z,99650.41
2023-01-29T10:52:41.748Z,99640.13
2023-01-29T10:55:40.865Z,99635.81
2023-01-29T10:58:12.760Z,99637.59
2023-01-29T11:00:40.037Z,99630.66
2023-01-29T11:03:27.658Z,99633.50
2023-01-29T11:06:11.652Z,99630.25
2023-01-29T11:09:04.325Z,99628.78
2023-01-29T11:11:39.839Z,99633.88
2023-01-29T11:14:18.192Z,99631.41
2023-01-29T11:16:47.766Z,99635.47
2023-01-29T11:19:15.902Z,99639.69
2023-01-29T11:22:01.013Z,99634.41
2023-01-29T11:24:28.364Z,99624.84
2023-01-29T11:26:59.723Z,99625.63
2023-01-29T11:29:41.991Z,99627.41
2023-01-29T11:32:14.631Z,99619.44
2023-01-29T11:35:03.086Z,99615.19
2023-01-29T11:37:48.274Z,99609.91
2023-01-29T11:40:27.196Z,99597.69
2023-01-29T11:42:53.841Z,99595.06
2023-01-29T11:45:20.250Z,99585.66
2023-01-29T11:47:54.252Z,99582.22
2023-01-29T11:50:24.896Z,99571.66
2023-01-29T11:52:51.769Z,99564.66
2023-01-29T11:55:23.270Z,99567.31
2023-01-29T11:57:58.424Z,99558.69
2023-01-29T12:00:28.525Z,99561.22
2023-01-29T12:03:02.274Z,99558.53
2023-01-29T12:05:28.853Z,99552.31
2023-01-29T12:07:59.852Z,99557.53
2023-01-29T12:10:33.230Z,99547.09
2023-01-29T12:13:09.664Z,99557.38
2023-01-29T12:15:40.736Z,99553.66
2023-01-29T12:18:23.024Z,99555.31
2023-01-29T12:20:59.090Z,99531.03
2023-01-29T12:23:43.425Z,99533.75
2023-01-29T12:26:37.535Z,99538.97
2023-01-29T12:29:09.899Z,99535.72
2023-01-29T12:31:44.073Z,99533.22
2023-01-29T12:34:45.565Z,99525.34
2023-01-29T12:37:38.507Z,99517.16
2023-01-29T12:40:16.999Z,99526.56
2023-01-29T12:42:48.819Z,99513.47
2023-01-29T12:45:21.272Z,99515.03
2023-01-29T12:47:53.745Z,99506.13
2023-01-29T12:50:26.930Z,99520.03
2023-01-29T12:52:58.665Z,99497.41
2023-01-29T12:55:29.444Z,99516.31
2023-01-29T12:57:57.730Z,99514.47
2023-01-29T13:00:28.340Z,99501.38
2023-01-29T13:03:16.219Z,99517.19
2023-01-29T13:05:59.323Z,99512.91
2023-01-29T13:08:38.419Z,99518.91
2023-01-29T13:11:11.966Z,99526.63
2023-01-29T13:13:54.553Z,99517.84
2023-01-29T13:16:31.566Z,99512.63
2023-01-29T13:19:02.515Z,99512.34
2023-01-29T13:21:43.906Z,99518.22
2023-01-29T13:24:16.237Z,99521.66
2023-01-29T13:26:47.310Z,99524.13
2023-01-29T13:29:23.289Z,99529.22
2023-01-29T13:31:52.501Z,99522.94
2023-01-29T13:34:24.643Z,99503.81
2023-01-29T13:36:57.021Z,99510.72
2023-01-29T13:39:32.842Z,99499.41
2023-01-29T13:42:01.298Z,99493.38
2023-01-29T13:44:38.082Z,99488.22
2023-01-29T13:47:25.027Z,99491.72
2023-01-29T13:50:02.823Z,99482.19
2023-01-29T13:52:43.887Z,99490.00
2023-01-29T13:55:21.168Z,99479.59
2023-01-29T13:57:50.395Z,99477.75
2023-01-29T14:00:24.321Z,99475.91
2023-01-29T14:02:56.809Z,99461.97
2023-01-29T14:05:32.124Z,99456.75
2023-01-29T14:08:13.561Z,99450.72
2023-01-29T14:10:42.115Z,99454.16
2023-01-29T14:13:11.437Z,99448.94
2023-01-29T14:15:41.732Z,99443.66
2023-01-29T14:18:08.137Z,99436.75
2023-01-29T14:20:48.917Z,99442.78
2023-01-29T14:23:35.714Z,99449.63
2023-01-29T14:26:05.460Z,99448.59
2023-01-29T14:28:34.396Z,99444.31
2023-01-29T14:31:01.678Z,99436.50
2023-01-29T14:33:34.197Z,99432.28
2023-01-29T14:36:07.202Z,99428.09
2023-01-29T14:38:34.281Z,99429.81
2023-01-29T14:41:32.642Z,99431.41
2023-01-29T14:44:53.350Z,99433.00
2023-01-29T14:47:28.291Z,99435.63
2023-01-29T14:49:56.177Z,99444.13
2023-01-29T14:52:43.189Z,99435.56
2023-01-29T14:55:22.711Z,99444.31
2023-01-29T14:57:50.313Z,99442.66
2023-01-29T15:00:39.257Z,99439.22
2023-01-29T15:03:16.444Z,99434.84
2023-01-29T15:05:43.648Z,99433.00
2023-01-29T15:08:29.896Z,99440.81
2023-01-29T15:11:18.971Z,99433.00
2023-01-29T15:13:56.187Z,99424.31
2023-01-29T15:16:32.207Z,99419.19
2023-01-29T15:19:15.981Z,99411.28
2023-01-29T15:22:05.528Z,99416.59
2023-01-29T15:24:32.365Z,99406.16
2023-01-29T15:26:59.016Z,99389.41
2023-01-29T15:29:27.918Z,99394.63
2023-01-29T15:31:56.744Z,99397.22
2023-01-29T15:34:23.523Z,99390.25
2023-01-29T15:36:50.621Z,99384.06
2023-01-29T15:39:17.092Z,99375.44
2023-01-29T15:41:44.927Z,99367.63
2023-01-29T15:44:16.813Z,99370.22
2023-01-29T15:46:44.530Z,99360.69
2023-01-29T15:49:33.609Z,99365.00
2023-01-29T15:52:04.960Z,99364.19
2023-01-29T15:54:33.603Z,99353.75
2023-01-29T15:57:01.820Z,99356.38
2023-01-29T15:59:35.634Z,99342.44
2023-01-29T16:02:30.215Z,99325.09
2023-01-29T16:04:57.050Z,99341.97
2023-01-29T16:07:23.701Z,99339.38
2023-01-29T16:09:52.616Z,99339.38
2023-01-29T16:12:19.719Z,99327.16
2023-01-29T16:14:48.546Z,99338.47
2023-01-29T16:17:35.762Z,99328.00
2023-01-29T16:20:05.337Z,99327.16
2023-01-29T16:22:41.037Z,99326.34
2023-01-29T16:25:14.759Z,99322.84
2023-01-29T16:27:44.277Z,99314.03
2023-01-29T16:30:16.293Z,99314.88
2023-01-29T16:32:43.024Z,99309.59
2023-01-29T16:35:16.455Z,99304.31
2023-01-29T16:37:48.847Z,99299.06
2023-01-29T16:40:33.764Z,99296.31
2023-01-29T16:43:18.153Z,99289.47
2023-01-29T16:46:03.538Z,99293.72
2023-01-29T16:48:34.779Z,99277.19
2023-01-29T16:51:12.310Z,99276.97
2023-01-29T16:53:38.929Z,99281.34
2023-01-29T16:56:08.407Z,99277.81
2023-01-29T16:58:35.394Z,99275.19
2023-01-29T17:01:11.074Z,99275.91
2023-01-29T17:03:39.136Z,99272.47
2023-01-29T17:06:13.779Z,99267.13
2023-01-29T17:08:43.606Z,99249.72
2023-01-29T17:11:13.372Z,99256.56
2023-01-29T17:13:43.828Z,99244.22
2023-01-29T17:16:19.497Z,99237.06
2023-01-29T17:18:46.110Z,99237.94
2023-01-29T17:21:12.612Z,99236.06
2023-01-29T17:23:39.803Z,99217.78
2023-01-29T17:26:09.768Z,99212.72
2023-01-29T17:28:36.276Z,99213.69
2023-01-29T17:31:06.681Z,99208.47
2023-01-29T17:33:42.451Z,99210.13
2023-01-29T17:36:13.915Z,99215.47
2023-01-29T17:38:41.413Z,99212.78
2023-01-29T17:41:30.072Z,99211.06
2023-01-29T17:43:56.602Z,99204.91
2023-01-29T17:46:23.071Z,99206.75
2023-01-29T17:48:49.709Z,99196.28
2023-01-29T17:51:17.781Z,99203.38
2023-01-29T17:53:46.655Z,99195.56
2023-01-29T17:56:18.735Z,99189.59
2023-01-29T17:58:45.318Z,99190.50
2023-01-29T18:01:11.816Z,99168.66
2023-01-29T18:03:38.399Z,99176.47
2023-01-29T18:06:08.055Z,99171.19
2023-01-29T18:08:36.834Z,99169.53
2023-01-29T18:11:03.500Z,99178.34
2023-01-29T18:13:30.018Z,99179.47
2023-01-29T18:15:56.559Z,99188.09
2023-01-29T18:18:24.290Z,99201.94
2023-01-29T18:20:51.198Z,99195.84
2023-01-29T18:23:17.704Z,99194.13
2023-01-29T18:25:44.851Z,99196.53
2023-01-29T18:28:19.219Z,99187.00
2023-01-29T18:30:47.310Z,99193.16
2023-01-29T18:33:15.516Z,99201.94
2023-01-29T18:35:44.557Z,99188.03
2023-01-29T18:38:11.406Z,99195.03
2023-01-29T18:40:37.910Z,99194.13
2023-01-29T18:43:04.360Z,99183.63
2023-01-29T18:45:31.025Z,99179.47
2023-01-29T18:47:57.678Z,99173.47
2023-01-29T18:50:26.285Z,99162.88
2023-01-29T18:52:53.985Z,99176.03
2023-01-29T18:55:21.204Z,99150.75
2023-01-29T18:58:36.059Z,99172.47
2023-01-29T19:00:34.569Z,99173.47
2023-01-29T19:03:01.094Z,99174.50
2023-01-29T19:05:27.895Z,99156.31
2023-01-29T19:07:54.395Z,99161.28
2023-01-29T19:10:20.864Z,99163.84
2023-01-29T19:12:47.723Z,99129.69
2023-01-29T19:15:14.264Z,99125.25
2023-01-29T19:17:40.740Z,99093.94
2023-01-29T19:20:09.554Z,99106.97
2023-01-29T19:22:36.247Z,99094.72
2023-01-29T19:25:02.781Z,99099.94
2023-01-29T19:27:30.545Z,99099.72
2023-01-29T19:30:02.369Z,99080.59
2023-01-29T19:32:28.945Z,99086.63
2023-01-29T19:34:55.558Z,99082.13
2023-01-29T19:37:22.358Z,99086.25
2023-01-29T19:39:48.813Z,99087.91
2023-01-29T19:42:15.533Z,99075.78
2023-01-29T19:44:41.975Z,99076.53
2023-01-29T19:47:08.715Z,99052.16
2023-01-29T19:49:39.341Z,99051.34
2023-01-29T19:52:07.958Z,99039.09
2023-01-29T19:54:34.401Z,99040.81
2023-01-29T19:57:00.888Z,99042.56
2023-01-29T19:59:27.344Z,99027.91
2023-01-29T20:01:53.824Z,99022.69
2023-01-29T20:04:20.453Z,99006.19
2023-01-29T20:06:46.921Z,98999.34
2023-01-29T20:09:13.411Z,99003.72
2023-01-29T20:11:39.840Z,99015.84
2023-01-29T20:14:06.375Z,99010.63
2023-01-29T20:16:32.839Z,99020.09
2023-01-29T20:19:14.398Z,99015.59
2023-01-29T20:21:42.800Z,99008.91
2023-01-29T20:24:13.387Z,99006.44
2023-01-29T20:26:40.048Z,99007.09
2023-01-29T20:29:06.854Z,99007.19
2023-01-29T20:31:33.718Z,98993.25
2023-01-29T20:34:03.678Z,98994.91
2023-01-29T20:36:30.147Z,98979.28
2023-01-29T20:38:56.711Z,98966.31
2023-01-29T20:41:23.212Z,98963.78
2023-01-29T20:43:53.124Z,98938.63
2023-01-29T20:46:20.685Z,98924.66
2023-01-29T20:48:48.721Z,98913.44
2023-01-29T20:51:20.241Z,98903.06
2023-01-29T20:53:47.997Z,98896.09
2023-01-29T20:56:16.979Z,98888.28
2023-01-29T20:58:44.113Z,98875.50
2023-01-29T21:01:24.089Z,98864.31
2023-01-29T21:03:56.883Z,98877.50
2023-01-29T21:06:24.883Z,98875.63
2023-01-29T21:08:51.455Z,98892.97
2023-01-29T21:11:18.134Z,98888.53
2023-01-29T21:13:46.792Z,98876.19
2023-01-29T21:16:13.440Z,98860.63
2023-01-29T21:18:42.794Z,98849.28
2023-01-29T21:21:12.467Z,98842.41
2023-01-29T21:23:38.951Z,98849.34
2023-01-29T21:26:08.409Z,98853.66
2023-01-29T21:28:35.219Z,98852.78
2023-01-29T21:31:06.431Z,98848.34
2023-01-29T21:33:34.343Z,98849.13
2023-01-29T21:36:01.842Z,98836.94
2023-01-29T21:38:28.521Z,98836.22
2023-01-29T21:41:02.748Z,98830.91
2023-01-29T21:43:29.278Z,98833.50
2023-01-29T21:46:01.225Z,98810.06
2023-01-29T21:48:27.756Z,98813.69
2023-01-29T21:50:54.278Z,98810.97
2023-01-29T21:53:20.871Z,98815.22
2023-01-29T21:55:47.843Z,98836.09
2023-01-29T21:58:14.847Z,98851.25
2023-01-29T22:00:41.382Z,98834.84
2023-01-29T22:03:11.270Z,98841.88
2023-01-29T22:05:41.244Z,98843.66
2023-01-29T22:08:07.819Z,98839.53
2023-01-29T22:10:36.469Z,98813.50
2023-01-29T22:13:06.244Z,98810.25
2023-01-29T22:15:32.795Z,98804.16
2023-01-29T22:17:59.416Z,98787.66
2023-01-29T22:20:30.172Z,98806.66
2023-01-29T22:23:00.601Z,98811.09
2023-01-29T22:25:27.820Z,98798.16
2023-01-29T22:28:00.265Z,98798.16
2023-01-29T22:30:27.087Z,98776.25
2023-01-29T22:33:01.268Z,98790.88
2023-01-29T22:35:37.193Z,98783.13
2023-01-29T22:38:04.515Z,98764.06
2023-01-29T22:40:31.031Z,98777.97
2023-01-29T22:42:58.355Z,98756.63
2023-01-29T22:45:24.906Z,98755.94
2023-01-29T22:47:51.353Z,98774.03
2023-01-29T22:50:18.391Z,98743.66
2023-01-29T22:53:01.572Z,98772.31
2023-01-29T22:55:34.593Z,98749.75
2023-01-29T22:58:01.575Z,98748.78
2023-01-29T23:00:28.276Z,98709.84
2023-01-29T23:02:54.727Z,98716.94
2023-01-29T23:05:24.481Z,98704.09
2023-01-29T23:07:50.964Z,98726.66
2023-01-29T23:10:17.751Z,98734.59
2023-01-29T23:12:44.399Z,98741.31
2023-01-29T23:15:11.104Z,98743.88
2023-01-29T23:17:39.604Z,98719.44
2023-01-29T23:20:11.307Z,98712.50
2023-01-29T23:22:38.234Z,98702.03
2023-01-29T23:25:05.204Z,98698.56
2023-01-29T23:27:33.384Z,98711.53
2023-01-29T23:29:59.885Z,98702.00
2023-01-29T23:32:29.346Z,98707.31
2023-01-29T23:34:55.884Z,98692.66
2023-01-29T23:37:22.585Z,98686.50
2023-01-29T23:39:49.431Z,98683.38
2023-01-29T23:42:15.963Z,98678.31
2023-01-29T23:44:44.693Z,98663.53
2023-01-29T23:47:11.183Z,98659.38
2023-01-29T23:49:37.728Z,98634.16
2023-01-29T23:52:09.898Z,98635.03
2023-01-29T23:54:36.379Z,98620.13
2023-01-29T23:57:02.962Z,98601.09
2023-01-29T23:59:29.515Z,98586.25
